Time;durP1;ratioP1;P1;durP2;ratioP2;P2;SDS_P1;SDS_P2;PMS_P1;PMS_P2;Temp;Humidity;BMP_temperature;BMP_pressure;BME280_temperature;BME280_humidity;BME280_pressure;Samples;Min_cycle;Max_cycle;Signal;HPM_P1;HPM_P2
2022/07/01 00:00:46;;;;;;;;;;;;;;;20.65;89.90;101118.72;4977550;28;19933;-82
2022/07/01 00:03:24;;;;;;;;;;;;;;;20.65;89.62;101126.91;4993057;28;19922;-82
2022/07/01 00:05:50;;;;;;;;;;;;;;;20.60;92.38;101113.22;4977708;29;19966;-82
2022/07/01 00:08:15;;;;;;;;;;;;;;;20.61;91.58;101115.66;4976192;28;19922;-82
2022/07/01 00:10:41;;;;;;;;;;;;;;;20.61;91.51;101118.41;5012692;28;19928;-82
2022/07/01 00:13:06;;;;;;;;;;;;;;;20.56;92.00;101123.84;5012185;28;19925;-82
2022/07/01 00:15:32;;;;;;;;;;;;;;;20.50;91.90;101122.09;5013164;28;19926;-82
2022/07/01 00:17:57;;;;;;;;;;;;;;;20.45;90.56;101122.03;4992413;28;19950;-82
2022/07/01 00:20:23;;;;;;;;;;;;;;;20.44;93.13;101125.03;5012917;28;19942;-82
2022/07/01 00:22:48;;;;;;;;;;;;;;;20.41;94.40;101115.44;5007777;28;19914;-82
2022/07/01 00:25:14;;;;;;;;;;;;;;;20.39;96.81;101112.13;4991479;28;19914;-82
2022/07/01 00:27:40;;;;;;;;;;;;;;;20.39;93.82;101112.13;4976422;28;19915;-82
2022/07/01 00:30:06;;;;;;;;;;;;;;;20.38;93.03;101110.47;4976414;28;19922;-82
2022/07/01 00:32:31;;;;;;;;;;;;;;;20.36;95.23;101107.16;4962115;28;19923;-82
2022/07/01 00:34:57;;;;;;;;;;;;;;;20.31;94.65;101105.22;4957530;29;19915;-82
2022/07/01 00:37:41;;;;;;;;;;;;;;;20.27;97.18;101103.25;4970238;28;19922;-82
2022/07/01 00:40:07;;;;;;;;;;;;;;;20.25;96.88;101102.69;4976876;28;19921;-82
2022/07/01 00:42:33;;;;;;;;;;;;;;;20.23;98.31;101091.16;4975629;28;19906;-82
2022/07/01 00:45:00;;;;;;;;;;;;;;;20.17;100.00;101095.78;4978213;28;19907;-81
2022/07/01 00:47:25;;;;;;;;;;;;;;;19.81;99.60;101032.53;4993516;28;19946;-82
2022/07/01 00:49:51;;;;;;;;;;;;;;;20.12;98.91;101092.97;4974608;28;19919;-82
2022/07/01 00:52:16;;;;;;;;;;;;;;;20.05;100.00;101093.16;4976648;28;19967;-82
2022/07/01 00:54:42;;;;;;;;;;;;;;;20.02;100.00;101084.66;4975823;28;19919;-82
2022/07/01 00:57:08;;;;;;;;;;;;;;;19.97;97.59;101096.38;4972483;28;20381;-82
2022/07/01 00:59:36;;;;;;;;;;;;;;;19.91;97.56;101091.91;4971587;28;19927;-81
2022/07/01 01:02:03;;;;;;;;;;;;;;;19.86;98.99;101092.66;4971636;28;19954;-82
2022/07/01 01:04:28;;;;;;;;;;;;;;;19.85;99.74;101091.00;4957530;29;19982;-81
2022/07/01 01:06:54;;;;;;;;;;;;;;;19.80;99.96;101080.03;4982271;28;19914;-82
2022/07/01 01:09:19;;;;;;;;;;;;;;;19.77;100.00;101077.81;4995236;28;19914;-82
2022/07/01 01:11:45;;;;;;;;;;;;;;;19.70;98.28;101078.00;4979990;28;19929;-82
2022/07/01 01:14:10;;;;;;;;;;;;;;;19.68;98.08;101082.88;4975801;28;19926;-82
2022/07/01 01:16:38;;;;;;;;;;;;;;;19.66;100.00;101090.47;4973897;28;20033;-82
2022/07/01 01:19:07;;;;;;;;;;;;;;;19.60;100.00;101083.31;4973391;28;19942;-82
2022/07/01 01:21:35;;;;;;;;;;;;;;;19.54;100.00;101080.75;4975604;28;19942;-81
2022/07/01 01:24:02;;;;;;;;;;;;;;;19.52;100.00;101085.63;4971787;28;19914;-82
2022/07/01 01:26:30;;;;;;;;;;;;;;;19.46;100.00;101082.00;4976241;28;20006;-82
2022/07/01 01:28:57;;;;;;;;;;;;;;;19.43;100.00;101077.84;4974632;28;19922;-82
2022/07/01 01:31:29;;;;;;;;;;;;;;;19.42;100.00;101075.38;4974777;28;20001;-82
2022/07/01 01:33:55;;;;;;;;;;;;;;;19.40;100.00;101072.06;4973382;28;19949;-81
2022/07/01 01:36:20;;;;;;;;;;;;;;;19.40;100.00;101070.19;4976054;28;19925;-82
2022/07/01 01:38:45;;;;;;;;;;;;;;;19.44;100.00;101078.72;4987845;28;19922;-82
2022/07/01 01:41:11;;;;;;;;;;;;;;;19.44;100.00;101067.78;4980594;28;19918;-82
2022/07/01 01:43:36;;;;;;;;;;;;;;;19.43;100.00;101066.94;4975185;28;19941;-82
2022/07/01 01:46:02;;;;;;;;;;;;;;;19.43;100.00;101066.94;4976650;28;19982;-82
2022/07/01 01:48:28;;;;;;;;;;;;;;;19.45;100.00;101070.25;4990964;28;19918;-82
2022/07/01 01:50:53;;;;;;;;;;;;;;;19.47;100.00;101072.75;4989886;28;19942;-81
2022/07/01 01:53:18;;;;;;;;;;;;;;;19.48;100.00;101072.47;4973786;28;19921;-82
2022/07/01 01:55:44;;;;;;;;;;;;;;;19.46;100.00;101076.53;4995879;28;19936;-81
2022/07/01 01:58:09;;;;;;;;;;;;;;;19.42;100.00;101073.47;4996887;28;19922;-82
2022/07/01 02:00:34;;;;;;;;;;;;;;;19.38;100.00;101079.72;4975466;28;19927;-81
2022/07/01 02:02:59;;;;;;;;;;;;;;;19.33;100.00;101082.34;4975228;29;19909;-82
2022/07/01 02:05:24;;;;;;;;;;;;;;;19.28;100.00;101085.03;4988399;28;19926;-82
2022/07/01 02:07:50;;;;;;;;;;;;;;;19.27;100.00;101083.34;4974322;28;19942;-81
2022/07/01 02:10:15;;;;;;;;;;;;;;;19.26;100.00;101082.53;4974642;28;19941;-82
2022/07/01 02:12:40;;;;;;;;;;;;;;;19.25;100.00;101078.97;4975681;28;19952;-82
2022/07/01 02:15:05;;;;;;;;;;;;;;;19.23;100.00;101075.66;4973368;28;19914;-82
2022/07/01 02:17:31;;;;;;;;;;;;;;;19.17;100.00;101089.47;4989627;28;19948;-82
2022/07/01 02:19:56;;;;;;;;;;;;;;;19.11;100.00;101072.22;4974474;28;19918;-82
2022/07/01 02:22:21;;;;;;;;;;;;;;;19.04;100.00;101079.75;4972276;28;19918;-82
2022/07/01 02:24:46;;;;;;;;;;;;;;;18.99;100.00;101085.94;4976099;28;19916;-82
2022/07/01 02:27:15;;;;;;;;;;;;;;;18.96;100.00;101089.16;4994514;28;20018;-82
2022/07/01 02:29:41;;;;;;;;;;;;;;;18.97;100.00;101085.38;4977972;28;19982;-82
2022/07/01 02:32:07;;;;;;;;;;;;;;;19.00;100.00;101078.56;4980043;28;20326;-82
2022/07/01 02:34:32;;;;;;;;;;;;;;;19.04;100.00;101079.75;4997216;28;19910;-82
2022/07/01 02:36:57;;;;;;;;;;;;;;;19.05;100.00;101075.94;4993915;28;19926;-81
2022/07/01 02:39:23;;;;;;;;;;;;;;;19.05;100.00;101084.13;4997659;28;19945;-82
2022/07/01 02:44:34;;;;;;;;;;;;;;;18.97;100.00;101079.91;4990659;28;19937;-82
2022/07/01 02:46:59;;;;;;;;;;;;;;;18.91;100.00;101080.91;4997255;28;19902;-82
2022/07/01 02:49:24;;;;;;;;;;;;;;;18.84;100.00;101074.78;5008816;28;19925;-82
2022/07/01 02:51:49;;;;;;;;;;;;;;;18.82;100.00;101068.75;4966893;28;19919;-82
2022/07/01 02:54:15;;;;;;;;;;;;;;;18.85;100.00;101068.25;4992143;28;19914;-82
2022/07/01 02:56:40;;;;;;;;;;;;;;;18.85;100.00;101064.72;4995075;28;19918;-82
2022/07/01 02:59:05;;;;;;;;;;;;;;;18.84;100.00;101068.50;4992429;28;19922;-81
2022/07/01 03:01:30;;;;;;;;;;;;;;;18.80;100.00;101061.88;4996281;28;19958;-82
2022/07/01 03:03:55;;;;;;;;;;;;;;;18.80;100.00;101067.34;4990911;28;19919;-82
2022/07/01 03:06:21;;;;;;;;;;;;;;;18.80;100.00;101065.44;4976170;29;20395;-82
2022/07/01 03:08:46;;;;;;;;;;;;;;;18.86;100.00;101061.72;4978463;28;19982;-81
2022/07/01 03:11:11;;;;;;;;;;;;;;;18.88;100.00;101053.31;4979383;28;19955;-81
2022/07/01 03:13:36;;;;;;;;;;;;;;;18.89;100.00;101057.69;4982718;28;19999;-82
2022/07/01 03:16:02;;;;;;;;;;;;;;;19.07;100.00;101067.50;4992573;28;19946;-82
2022/07/01 03:18:27;;;;;;;;;;;;;;;19.15;100.00;101067.09;4975898;28;19954;-82
2022/07/01 03:20:53;;;;;;;;;;;;;;;19.11;100.00;101063.22;4994162;28;19930;-81
2022/07/01 03:23:18;;;;;;;;;;;;;;;19.30;100.00;101071.94;4977459;28;19942;-82
2022/07/01 03:25:43;;;;;;;;;;;;;;;20.09;100.00;101068.91;4998952;28;19918;-82
2022/07/01 03:28:09;;;;;;;;;;;;;;;20.31;100.00;101063.41;5002301;28;20005;-81
2022/07/01 03:30:34;;;;;;;;;;;;;;;20.37;100.00;101065.09;4984893;28;19934;-82
2022/07/01 03:32:59;;;;;;;;;;;;;;;19.99;100.00;101058.66;4991200;28;19919;-82
2022/07/01 03:35:40;;;;;;;;;;;;;;;19.81;100.00;101065.31;4992139;28;19918;-82
2022/07/01 03:38:06;;;;;;;;;;;;;;;19.67;100.00;101077.69;4979100;28;19902;-82
2022/07/01 03:40:31;;;;;;;;;;;;;;;19.60;100.00;101068.81;4980712;28;19950;-82
2022/07/01 03:42:57;;;;;;;;;;;;;;;19.61;100.00;101062.28;4967332;28;19925;-82
2022/07/01 03:45:23;;;;;;;;;;;;;;;19.62;100.00;101064.75;4982392;28;20639;-82
2022/07/01 03:47:49;;;;;;;;;;;;;;;19.65;100.00;101072.47;4994677;28;19918;-82
2022/07/01 03:50:14;;;;;;;;;;;;;;;19.70;100.00;101077.16;4980375;28;19921;-82
2022/07/01 03:52:41;;;;;;;;;;;;;;;19.69;100.00;101073.59;4981641;28;19970;-82
2022/07/01 03:55:10;;;;;;;;;;;;;;;20.52;100.00;101075.38;5001939;28;19929;-82
2022/07/01 03:57:36;;;;;;;;;;;;;;;21.89;99.57;101069.22;4988124;28;19946;-82
2022/07/01 04:00:01;;;;;;;;;;;;;;;22.94;91.72;101068.91;5000340;28;19927;-82
2022/07/01 04:02:26;;;;;;;;;;;;;;;23.67;88.31;101068.47;4971186;28;19921;-82
2022/07/01 04:04:52;;;;;;;;;;;;;;;24.35;85.46;101063.19;4980332;28;20348;-82
2022/07/01 04:07:17;;;;;;;;;;;;;;;24.65;83.48;101053.13;4987949;28;19953;-82
2022/07/01 04:09:42;;;;;;;;;;;;;;;25.14;82.40;101057.66;4996976;28;19917;-82
2022/07/01 04:12:09;;;;;;;;;;;;;;;25.49;81.45;101055.63;5016319;28;19941;-83
2022/07/01 04:14:34;;;;;;;;;;;;;;;25.77;79.60;101043.72;4996158;28;19926;-82
2022/07/01 04:17:01;;;;;;;;;;;;;;;25.97;79.12;101039.09;4994681;28;19946;-84
2022/07/01 04:19:26;;;;;;;;;;;;;;;26.18;78.60;101043.19;4974917;28;20060;-83
2022/07/01 04:24:55;;;;;;;;;;;;;;;26.58;77.67;101043.69;5294014;23;19978;-83
2022/07/01 04:29:59;;;;;;;;;;;;;;;26.84;77.31;101032.22;5164179;23;19926;-80
2022/07/01 04:32:24;;;;;;;;;;;;;;;26.98;77.16;101022.03;4972683;28;20003;-79
2022/07/01 04:34:50;;;;;;;;;;;;;;;26.95;77.49;101019.88;4968421;28;19930;-82
2022/07/01 04:37:15;;;;;;;;;;;;;;;27.22;76.88;101013.63;4992424;28;19923;-82
2022/07/01 04:39:41;;;;;;;;;;;;;;;27.41;76.01;101016.25;4973622;28;19918;-82
2022/07/01 04:42:06;;;;;;;;;;;;;;;27.64;75.57;101006.91;4962801;28;19945;-82
2022/07/01 04:44:35;;;;;;;;;;;;;;;27.40;76.53;101011.88;4984410;28;19925;-82
2022/07/01 04:47:01;;;;;;;;;;;;;;;27.36;76.84;101016.38;4974905;28;19938;-83
2022/07/01 04:49:26;;;;;;;;;;;;;;;27.33;77.48;101020.56;4988521;28;19913;-82
2022/07/01 04:51:52;;;;;;;;;;;;;;;27.33;77.79;101025.28;5177410;23;19911;-82
2022/07/01 04:54:22;;;;;;;;;;;;;;;27.32;77.79;101021.69;5009153;28;19906;-81
2022/07/01 04:56:50;;;;;;;;;;;;;;;27.14;79.02;101022.59;5000198;28;19905;-81
2022/07/01 04:59:16;;;;;;;;;;;;;;;27.23;79.18;101019.94;4994925;28;20009;-82
2022/07/01 05:01:43;;;;;;;;;;;;;;;27.14;79.66;101023.41;5000738;28;19925;-81
2022/07/01 05:04:08;;;;;;;;;;;;;;;27.06;80.67;101007.53;4999603;28;19914;-81
2022/07/01 05:06:34;;;;;;;;;;;;;;;26.93;81.80;101008.31;5015344;28;19913;-83
2022/07/01 05:08:59;;;;;;;;;;;;;;;26.93;82.21;101020.19;5005842;28;19921;-84
2022/07/01 05:11:25;;;;;;;;;;;;;;;26.94;82.57;101018.25;5464102;23;20645;-79
2022/07/01 05:13:50;;;;;;;;;;;;;;;26.89;83.76;101026.63;4988739;28;19918;-83
2022/07/01 05:54:57;;;;;;;;;;;;;;;25.96;92.07;101070.50;4973992;28;19927;-83
2022/07/01 05:57:24;;;;;;;;;;;;;;;25.84;92.37;101078.41;4969947;28;20013;-83
2022/07/01 05:59:50;;;;;;;;;;;;;;;25.84;92.68;101081.97;4973587;28;19914;-82
2022/07/01 06:02:15;;;;;;;;;;;;;;;25.96;92.41;101076.88;4966137;28;19945;-82
2022/07/01 06:04:43;;;;;;;;;;;;;;;25.96;91.96;101076.03;4977249;28;19922;-83
2022/07/01 06:07:08;;;;;;;;;;;;;;;25.93;91.58;101076.63;5036097;22;19954;-82
2022/07/01 06:09:34;;;;;;;;;;;;;;;25.94;91.28;101078.28;4969796;29;19925;-81
2022/07/01 06:11:59;;;;;;;;;;;;;;;25.99;90.60;101075.44;4962023;29;19926;-80
2022/07/01 06:14:25;;;;;;;;;;;;;;;26.02;90.15;101074.84;4976889;28;19935;-81
2022/07/01 06:16:50;;;;;;;;;;;;;;;26.02;89.34;101074.84;4973164;28;19929;-81
2022/07/01 06:19:19;;;;;;;;;;;;;;;26.05;89.53;101074.25;4967057;29;19932;-81
2022/07/01 06:21:44;;;;;;;;;;;;;;;26.00;89.07;101068.81;4975983;28;19911;-81
2022/07/01 06:24:16;;;;;;;;;;;;;;;26.08;88.60;101068.16;4964143;28;19930;-81
2022/07/01 06:26:41;;;;;;;;;;;;;;;26.08;88.52;101078.34;4982155;28;19922;-83
2022/07/01 06:29:07;;;;;;;;;;;;;;;26.18;88.35;101078.22;4967075;29;19906;-83
2022/07/01 06:31:35;;;;;;;;;;;;;;;26.35;87.49;101073.00;4966829;28;19914;-83
2022/07/01 06:34:01;;;;;;;;;;;;;;;26.28;87.26;101088.28;4978468;28;19915;-83
2022/07/01 06:36:26;;;;;;;;;;;;;;;26.20;86.62;101076.81;4963739;29;19907;-83
2022/07/01 06:38:52;;;;;;;;;;;;;;;26.12;87.34;101087.69;4978045;28;19923;-83
2022/07/01 06:41:27;;;;;;;;;;;;;;;26.22;86.29;101084.78;4983002;28;19922;-83
2022/07/01 06:43:53;;;;;;;;;;;;;;;26.31;84.40;101085.75;4981909;28;19930;-83
2022/07/01 06:46:18;;;;;;;;;;;;;;;26.46;83.46;101079.19;4978578;28;19994;-83
2022/07/01 06:48:58;;;;;;;;;;;;;;;26.26;81.69;101074.81;4962304;28;19927;-83
2022/07/01 06:51:24;;;;;;;;;;;;;;;26.50;82.71;101068.41;4964155;28;19914;-84
2022/07/01 06:53:50;;;;;;;;;;;;;;;26.50;82.02;101077.50;4964143;28;19915;-84
2022/07/01 06:56:16;;;;;;;;;;;;;;;26.63;82.33;101082.25;4962723;28;19923;-83
2022/07/01 06:58:41;;;;;;;;;;;;;;;26.51;83.20;101068.09;4971376;29;19923;-84
2022/07/01 07:01:07;;;;;;;;;;;;;;;26.52;83.57;101066.97;4981776;28;19933;-83
2022/07/01 07:03:32;;;;;;;;;;;;;;;26.50;83.34;101066.47;4972264;28;19906;-81
2022/07/01 07:06:00;;;;;;;;;;;;;;;26.50;83.29;101079.44;4958127;28;19910;-81
2022/07/01 07:08:25;;;;;;;;;;;;;;;26.53;81.98;101073.34;4978381;28;19931;-83
2022/07/01 07:10:51;;;;;;;;;;;;;;;26.51;81.08;101084.66;4962223;28;19914;-83
2022/07/01 07:13:16;;;;;;;;;;;;;;;26.55;79.96;101082.13;4965753;29;19925;-83
2022/07/01 07:15:42;;;;;;;;;;;;;;;26.59;78.58;101084.00;4981556;28;19919;-83
2022/07/01 07:18:07;;;;;;;;;;;;;;;26.52;78.16;101083.53;4981845;28;19946;-84
2022/07/01 07:20:33;;;;;;;;;;;;;;;26.64;78.49;101072.84;4963088;28;19946;-84
2022/07/01 07:22:58;;;;;;;;;;;;;;;26.60;79.52;101077.34;4977656;28;19946;-83
2022/07/01 07:25:24;;;;;;;;;;;;;;;26.62;78.11;101083.41;4970809;28;20017;-83
2022/07/01 07:27:49;;;;;;;;;;;;;;;26.63;78.68;101076.75;4976089;28;19947;-83
2022/07/01 07:30:15;;;;;;;;;;;;;;;26.68;79.03;101068.38;4981418;28;19922;-83
2022/07/01 07:32:41;;;;;;;;;;;;;;;26.60;79.40;101065.50;4971914;28;19970;-81
2022/07/01 07:35:09;;;;;;;;;;;;;;;26.43;80.57;101075.09;4983611;28;19899;-81
2022/07/01 07:37:37;;;;;;;;;;;;;;;26.41;81.83;101073.75;4975519;28;19927;-81
2022/07/01 07:40:06;;;;;;;;;;;;;;;26.43;81.90;101074.28;4977542;28;19915;-81
2022/07/01 07:42:32;;;;;;;;;;;;;;;26.37;82.79;101081.00;4976180;28;19915;-80
2022/07/01 07:44:59;;;;;;;;;;;;;;;26.37;83.08;101079.03;4960086;29;20396;-81
2022/07/01 07:47:25;;;;;;;;;;;;;;;26.54;83.25;101095.09;4968235;29;19907;-83
2022/07/01 07:49:51;;;;;;;;;;;;;;;26.47;83.20;101083.59;4961617;29;19932;-83
2022/07/01 07:52:17;;;;;;;;;;;;;;;26.30;82.70;101097.09;4960960;28;19997;-83
2022/07/01 07:54:43;;;;;;;;;;;;;;;26.21;83.17;101091.41;4969274;28;19949;-83
2022/07/01 07:57:08;;;;;;;;;;;;;;;26.13;83.89;101095.66;4968469;28;19899;-84
2022/07/01 07:59:34;;;;;;;;;;;;;;;26.15;84.59;101101.69;4960892;29;19926;-83
2022/07/01 08:01:59;;;;;;;;;;;;;;;26.22;84.57;101101.31;4979001;28;19950;-83
2022/07/01 08:04:27;;;;;;;;;;;;;;;26.26;84.30;101105.16;4978890;28;19934;-83
2022/07/01 08:06:53;;;;;;;;;;;;;;;26.22;84.98;101090.28;4979153;28;19911;-83
2022/07/01 08:09:18;;;;;;;;;;;;;;;26.24;85.22;101104.63;4979461;28;19937;-83
2022/07/01 08:11:44;;;;;;;;;;;;;;;26.23;85.02;101092.75;4981533;28;19918;-83
2022/07/01 08:14:09;;;;;;;;;;;;;;;26.35;84.67;101097.00;4971038;28;19957;-83
2022/07/01 08:16:37;;;;;;;;;;;;;;;26.40;84.07;101105.22;4960694;28;19934;-83
2022/07/01 08:19:02;;;;;;;;;;;;;;;26.30;84.33;101099.84;4961210;28;19914;-82
2022/07/01 08:21:28;;;;;;;;;;;;;;;26.33;84.11;101102.84;4960149;28;19938;-83
2022/07/01 08:23:53;;;;;;;;;;;;;;;26.29;84.06;101100.94;4961089;28;19995;-83
2022/07/01 08:26:19;;;;;;;;;;;;;;;26.22;84.10;101099.41;4960795;29;19914;-83
2022/07/01 08:28:44;;;;;;;;;;;;;;;26.23;83.96;101103.81;4961214;28;19915;-82
2022/07/01 08:31:10;;;;;;;;;;;;;;;26.26;84.17;101105.16;4978520;28;19915;-83
2022/07/01 08:33:37;;;;;;;;;;;;;;;26.24;83.83;101107.38;4960375;29;19923;-83
2022/07/01 08:36:02;;;;;;;;;;;;;;;26.22;83.35;101110.44;4970740;29;19942;-83
2022/07/01 08:38:28;;;;;;;;;;;;;;;26.25;82.47;101109.81;4958503;29;19923;-83
2022/07/01 08:40:56;;;;;;;;;;;;;;;26.34;82.86;101110.00;4963581;28;19917;-83
2022/07/01 08:43:21;;;;;;;;;;;;;;;26.28;83.09;101115.88;4972886;28;19906;-84
2022/07/01 08:45:47;;;;;;;;;;;;;;;26.31;83.11;101118.84;4962901;28;19923;-83
2022/07/01 08:48:13;;;;;;;;;;;;;;;26.32;83.67;101122.44;4963522;28;19914;-83
2022/07/01 08:50:40;;;;;;;;;;;;;;;26.29;82.23;101125.78;4963222;28;19907;-83
2022/07/01 08:53:07;;;;;;;;;;;;;;;26.31;83.01;101129.91;4971153;28;19929;-83
2022/07/01 08:56:40;;;;;;;;;;;;;;;26.27;82.24;101128.84;4960817;28;19919;-83
2022/07/01 09:03:28;;;;;;;;;;;;;;;26.47;81.39;101123.06;6013838;22;19931;-81
2022/07/01 09:05:54;;;;;;;;;;;;;;;26.51;80.48;101136.28;4981718;28;19934;-81
2022/07/01 09:16:15;;;;;;;;;;;;;;;26.53;79.02;101145.91;6108194;22;20208;-79
2022/07/01 09:21:17;;;;;;;;;;;;;;;26.39;78.26;101150.47;5999840;22;19919;-81
2022/07/01 09:23:43;;;;;;;;;;;;;;;26.37;78.34;101152.72;4997244;28;19957;-83
2022/07/01 09:26:18;;;;;;;;;;;;;;;26.37;78.11;101158.25;5002116;28;19906;-82
2022/07/01 09:28:51;;;;;;;;;;;;;;;26.38;77.66;101159.88;5002724;28;19948;-81
2022/07/01 10:02:19;;;;;;;;;;;;;;;26.01;80.25;101161.44;5962240;23;19917;-80
2022/07/01 10:04:49;;;;;;;;;;;;;;;26.06;79.93;101155.88;5467179;23;19921;-80
2022/07/01 10:07:23;;;;;;;;;;;;;;;26.00;78.63;101165.34;4977126;28;19903;-81
2022/07/01 10:09:54;;;;;;;;;;;;;;;26.17;77.88;101151.06;5239409;23;19910;-81
2022/07/01 11:17:21;;;;;;;;;;;;;;;27.06;70.56;101118.00;6027882;23;19962;31
2022/07/01 11:53:23;;;;;;;;;;;;;;;27.33;66.75;101116.47;5456057;23;19926;-82
2022/07/01 12:06:11;;;;;;;;;;;;;;;27.18;67.32;101117.53;5734998;23;19912;-81
2022/07/01 14:45:38;;;;;;;;;;;;;;;25.43;86.11;101133.94;4956832;28;19934;-82
2022/07/01 15:00:59;;;;;;;;;;;;;;;25.25;89.25;101132.75;5900349;23;20718;-82
2022/07/01 18:19:58;;;;;;;;;;;;;;;20.08;100.00;101207.41;5628074;23;19928;-83
2022/07/01 18:22:25;;;;;;;;;;;;;;;20.05;100.00;101204.34;4906258;29;20400;-82
2022/07/01 18:24:57;;;;;;;;;;;;;;;19.98;100.00;101198.25;4927136;29;19932;-84
2022/07/01 18:27:24;;;;;;;;;;;;;;;19.95;100.00;101197.66;5344690;23;20024;-82
2022/07/01 18:29:54;;;;;;;;;;;;;;;19.88;100.00;101201.66;4927047;29;20000;-83
2022/07/01 18:37:39;;;;;;;;;;;;;;;19.89;100.00;101236.06;5576800;23;19937;-81
2022/07/01 18:50:25;;;;;;;;;;;;;;;19.82;100.00;101252.63;5694800;23;19924;-84
2022/07/01 18:52:51;;;;;;;;;;;;;;;19.73;100.00;101258.75;4936110;29;19967;-80
2022/07/01 19:13:22;;;;;;;;;;;;;;;19.45;100.00;101304.16;5914680;23;19922;-83
2022/07/01 19:15:48;;;;;;;;;;;;;;;19.45;100.00;101301.41;4939329;29;19922;-86
2022/07/01 19:20:49;;;;;;;;;;;;;;;19.38;100.00;101292.56;5887279;23;19928;-82
2022/07/01 19:46:33;;;;;;;;;;;;;;;18.34;100.00;101282.56;5106272;23;19925;-80
2022/07/01 19:48:58;;;;;;;;;;;;;;;18.18;100.00;101294.16;4918937;29;20063;-80
2022/07/01 19:51:24;;;;;;;;;;;;;;;18.11;100.00;101283.41;4911408;29;19918;-82
2022/07/01 19:53:49;;;;;;;;;;;;;;;18.06;100.00;101291.47;4941532;29;19918;-83
2022/07/01 19:56:15;;;;;;;;;;;;;;;18.01;100.00;101294.91;4919632;29;19948;-83
2022/07/01 19:58:41;;;;;;;;;;;;;;;17.95;100.00;101301.28;5282014;23;19927;-80
2022/07/01 20:01:06;;;;;;;;;;;;;;;17.89;100.00;101296.78;4894367;29;19923;-80
2022/07/01 20:03:32;;;;;;;;;;;;;;;17.87;100.00;101303.53;4917929;29;19958;-79
2022/07/01 20:05:57;;;;;;;;;;;;;;;17.87;100.00;101308.97;4912835;29;19959;-81
2022/07/01 20:08:22;;;;;;;;;;;;;;;17.87;100.00;101319.88;4929842;29;19900;-82
2022/07/01 20:10:48;;;;;;;;;;;;;;;17.74;100.00;101313.53;4918931;29;19923;-81
2022/07/01 20:13:13;;;;;;;;;;;;;;;17.67;100.00;101314.72;4929180;29;19923;-81
2022/07/01 20:25:54;;;;;;;;;;;;;;;17.51;100.00;101321.66;4971997;28;19911;-81
2022/07/01 20:28:20;;;;;;;;;;;;;;;17.56;100.00;101324.50;4952635;29;19918;-82
2022/07/01 20:30:45;;;;;;;;;;;;;;;17.58;100.00;101319.66;4961998;29;19953;-80
2022/07/01 20:33:10;;;;;;;;;;;;;;;17.57;100.00;101310.66;4940162;29;19925;-80
2022/07/01 20:35:35;;;;;;;;;;;;;;;17.59;100.00;101319.44;4934975;29;20001;-80
2022/07/01 20:38:01;;;;;;;;;;;;;;;17.63;100.00;101325.25;4964382;29;19965;-81
2022/07/01 20:40:26;;;;;;;;;;;;;;;17.51;100.00;101317.03;4963461;29;19923;-84
2022/07/01 20:42:51;;;;;;;;;;;;;;;17.45;100.00;101326.16;4976773;28;19910;-83
2022/07/01 20:45:16;;;;;;;;;;;;;;;17.50;100.00;101325.44;4978341;29;19929;-82
2022/07/01 20:47:42;;;;;;;;;;;;;;;17.51;100.00;101329.81;4962747;29;19910;-82
2022/07/01 20:50:08;;;;;;;;;;;;;;;17.50;100.00;101333.59;4960078;29;19941;-83
2022/07/01 20:52:34;;;;;;;;;;;;;;;17.48;100.00;101324.84;4963801;28;19906;-84
2022/07/01 20:54:59;;;;;;;;;;;;;;;17.41;100.00;101333.09;4946512;28;19969;-83
2022/07/01 20:57:24;;;;;;;;;;;;;;;17.37;100.00;101331.91;4976796;29;19915;-82
2022/07/01 20:59:50;;;;;;;;;;;;;;;17.35;100.00;101339.44;4976992;29;19922;-82
2022/07/01 21:02:15;;;;;;;;;;;;;;;17.39;100.00;101335.22;4974059;29;19982;-82
2022/07/01 21:04:40;;;;;;;;;;;;;;;17.40;100.00;101338.78;4970975;29;19922;-82
2022/07/01 21:07:06;;;;;;;;;;;;;;;17.36;100.00;101347.41;4952099;29;19918;-82
2022/07/01 21:09:32;;;;;;;;;;;;;;;17.42;100.00;101355.69;4958674;29;19995;-81
2022/07/01 21:11:57;;;;;;;;;;;;;;;17.45;100.00;101355.22;4980195;28;19922;-82
2022/07/01 21:14:24;;;;;;;;;;;;;;;17.45;100.00;101357.94;4973152;29;19946;-83
2022/07/01 21:16:49;;;;;;;;;;;;;;;17.40;100.00;101353.22;4956398;29;19985;-82
2022/07/01 21:19:14;;;;;;;;;;;;;;;17.37;100.00;101357.22;4942568;29;19923;-82
2022/07/01 21:21:39;;;;;;;;;;;;;;;17.35;100.00;101356.63;4939668;29;19903;-83
2022/07/01 21:24:05;;;;;;;;;;;;;;;17.36;100.00;101369.16;4932252;29;19942;-82
2022/07/01 21:26:30;;;;;;;;;;;;;;;17.38;100.00;101372.50;4959883;29;19899;-82
2022/07/01 21:28:55;;;;;;;;;;;;;;;17.38;100.00;101361.63;4975979;29;19918;-83
2022/07/01 21:31:21;;;;;;;;;;;;;;;17.35;100.00;101369.38;4940283;29;19919;-82
2022/07/01 21:33:46;;;;;;;;;;;;;;;17.14;100.00;101360.66;4957777;29;19915;-83
2022/07/01 21:36:11;;;;;;;;;;;;;;;17.00;100.00;101358.34;4943259;29;19937;-82
2022/07/01 21:38:42;;;;;;;;;;;;;;;16.96;100.00;101363.41;4975404;29;19974;-82
2022/07/01 21:41:10;;;;;;;;;;;;;;;17.00;100.00;101361.91;4974184;29;20296;-82
2022/07/01 21:43:36;;;;;;;;;;;;;;;17.04;100.00;101364.97;4957011;29;19950;-83
2022/07/01 21:46:04;;;;;;;;;;;;;;;17.09;100.00;101370.59;4958634;29;19914;-82
2022/07/01 21:48:30;;;;;;;;;;;;;;;17.07;100.00;101369.97;4974728;29;19937;-83
2022/07/01 21:50:56;;;;;;;;;;;;;;;16.94;100.00;101370.13;4957121;29;19930;-82
2022/07/01 21:53:22;;;;;;;;;;;;;;;16.87;100.00;101367.50;4976697;29;19907;-81
2022/07/01 21:55:49;;;;;;;;;;;;;;;16.80;100.00;101369.47;4958184;29;19918;-81
2022/07/01 21:58:14;;;;;;;;;;;;;;;16.78;100.00;101377.00;4975842;29;19942;-82
2022/07/01 22:00:40;;;;;;;;;;;;;;;16.82;100.00;101387.22;4959522;29;19915;-81
2022/07/01 22:03:06;;;;;;;;;;;;;;;16.84;100.00;101398.66;4974415;29;19926;-81
2022/07/01 22:08:15;;;;;;;;;;;;;;;16.80;100.00;101405.63;4944668;29;19947;-82
2022/07/01 22:10:44;;;;;;;;;;;;;;;16.73;100.00;101415.69;4925746;29;19919;-81
2022/07/01 22:13:10;;;;;;;;;;;;;;;16.73;100.00;101417.59;4977489;28;19906;-82
2022/07/01 22:15:39;;;;;;;;;;;;;;;16.61;100.00;101429.19;4961138;29;19903;-81
2022/07/01 22:18:05;;;;;;;;;;;;;;;16.39;100.00;101434.22;4960047;29;19910;-82
2022/07/01 22:20:31;;;;;;;;;;;;;;;16.34;100.00;101435.91;4977428;29;19922;-81
2022/07/01 22:22:57;;;;;;;;;;;;;;;16.34;100.00;101425.88;4977210;29;19986;-81
2022/07/01 22:25:23;;;;;;;;;;;;;;;16.29;100.00;101416.72;4955960;29;19954;-81
2022/07/01 22:27:48;;;;;;;;;;;;;;;16.17;100.00;101419.34;4959154;29;20306;-83
2022/07/01 22:30:14;;;;;;;;;;;;;;;16.07;100.00;101421.72;4954435;29;19915;-81
2022/07/01 22:32:39;;;;;;;;;;;;;;;15.95;100.00;101419.72;4959266;29;19907;-83
2022/07/01 22:35:05;;;;;;;;;;;;;;;15.92;100.00;101412.00;5535015;23;19954;-82
2022/07/01 22:37:31;;;;;;;;;;;;;;;15.89;100.00;101408.91;4938615;29;19927;-81
2022/07/01 22:39:56;;;;;;;;;;;;;;;15.83;100.00;101407.09;4921975;29;20294;-82
2022/07/01 22:42:23;;;;;;;;;;;;;;;15.82;100.00;101395.38;4939978;29;19946;-82
2022/07/01 22:44:49;;;;;;;;;;;;;;;15.83;100.00;101388.91;4925880;29;19911;-81
2022/07/01 22:47:15;;;;;;;;;;;;;;;15.87;100.00;101392.84;4922944;29;19934;-82
2022/07/01 22:49:41;;;;;;;;;;;;;;;15.88;100.00;101389.06;4925968;29;19944;-82
2022/07/01 22:52:12;;;;;;;;;;;;;;;15.91;100.00;101390.53;4944619;29;19915;-82
2022/07/01 22:54:45;;;;;;;;;;;;;;;15.91;100.00;101387.81;4942311;29;19927;-82
2022/07/01 22:57:16;;;;;;;;;;;;;;;15.92;100.00;101393.00;4925886;29;19912;-82
2022/07/01 22:59:42;;;;;;;;;;;;;;;15.97;100.00;101392.34;4940826;29;19961;-81
2022/07/01 23:02:10;;;;;;;;;;;;;;;15.95;100.00;101389.84;4941687;29;19899;-82
2022/07/01 23:04:37;;;;;;;;;;;;;;;15.97;100.00;101393.19;4926769;29;19926;-81
2022/07/01 23:07:09;;;;;;;;;;;;;;;16.08;100.00;101396.25;4942071;29;19914;-81